Time;durP1;ratioP1;P1;durP2;ratioP2;P2;SDS_P1;SDS_P2;PMS_P1;PMS_P2;Temp;Humidity;BMP_temperature;BMP_pressure;BME280_temperature;BME280_humidity;BME280_pressure;Samples;Min_cycle;Max_cycle;Signal;HPM_P1;HPM_P2
2022/11/05 00:10:04;;;;;;;11.87;10.67;;;7.80;99.90;;;;;;5054442;28;21814;-66
2022/11/05 00:17:58;;;;;;;11.47;10.27;;;7.60;99.90;;;;;;5052070;28;20269;-66
2022/11/05 00:20:23;;;;;;;12.77;11.50;;;7.50;99.90;;;;;;5057224;28;20632;-66
2022/11/05 00:25:33;;;;;;;11.50;10.50;;;7.40;99.90;;;;;;5065190;28;20186;-66
2022/11/05 00:28:01;;;;;;;11.27;10.17;;;7.40;99.90;;;;;;5050979;28;20171;-67
2022/11/05 00:30:27;;;;;;;12.20;11.10;;;7.30;99.90;;;;;;5056438;28;20170;-66
2022/11/05 00:32:53;;;;;;;13.27;12.03;;;7.30;99.90;;;;;;5071808;28;20536;-66
2022/11/05 00:35:20;;;;;;;11.87;10.87;;;7.20;99.90;;;;;;5068091;28;20198;-66
2022/11/05 00:37:47;;;;;;;15.27;10.97;;;7.20;99.90;;;;;;5052068;28;20667;-67
2022/11/05 00:40:13;;;;;;;12.23;11.10;;;7.20;99.90;;;;;;5052813;28;20293;-67
2022/11/05 00:45:28;;;;;;;12.30;10.87;;;7.10;99.90;;;;;;5068413;28;20228;-67
2022/11/05 00:50:38;;;;;;;11.37;10.27;;;7.10;99.90;;;;;;5055817;28;20224;-66
2022/11/05 00:53:04;;;;;;;15.63;9.93;;;7.10;99.90;;;;;;5071204;28;20225;-67
2022/11/05 00:55:44;;;;;;;11.30;10.20;;;7.10;99.90;;;;;;5068462;28;20624;-67
2022/11/05 00:58:28;;;;;;;11.60;10.50;;;7.00;99.90;;;;;;5051541;28;20163;-67
2022/11/05 01:00:56;;;;;;;10.90;10.00;;;7.00;99.90;;;;;;5056623;28;20166;-67
2022/11/05 01:03:30;;;;;;;11.07;9.97;;;7.00;99.90;;;;;;5067601;28;20214;-67
2022/11/05 01:06:12;;;;;;;12.77;10.03;;;7.00;99.90;;;;;;5051390;28;20178;-67
2022/11/05 01:08:40;;;;;;;17.47;10.90;;;6.90;99.90;;;;;;5057105;28;20181;-67
2022/11/05 01:11:09;;;;;;;12.60;10.43;;;6.90;99.90;;;;;;5071004;28;20170;-66
2022/11/05 01:13:35;;;;;;;21.30;10.57;;;6.80;99.90;;;;;;5066680;28;20225;-67
2022/11/05 01:16:05;;;;;;;18.17;10.73;;;6.80;99.90;;;;;;5051291;28;20171;-66
2022/11/05 01:18:31;;;;;;;14.43;11.07;;;6.80;99.90;;;;;;5054412;28;20174;-66
2022/11/05 01:20:57;;;;;;;12.67;11.37;;;6.70;99.90;;;;;;5071259;28;20177;-66
2022/11/05 01:23:22;;;;;;;15.30;9.90;;;6.70;99.90;;;;;;5069744;28;20716;-66
2022/11/05 01:25:48;;;;;;;11.23;10.13;;;6.70;99.90;;;;;;5051288;28;20226;-66
2022/11/05 01:28:14;;;;;;;15.40;10.83;;;6.60;99.90;;;;;;5064835;28;20710;-66
2022/11/05 01:30:39;;;;;;;15.60;10.27;;;6.60;99.90;;;;;;5070997;28;20163;-67
2022/11/05 01:33:06;;;;;;;10.57;9.53;;;6.60;99.90;;;;;;5057693;28;20206;-67
2022/11/05 01:35:31;;;;;;;12.83;11.47;;;6.60;99.90;;;;;;5052126;28;20201;-66
2022/11/05 01:37:57;;;;;;;13.90;10.73;;;6.60;99.90;;;;;;5062100;28;20202;-67
2022/11/05 01:40:24;;;;;;;12.50;11.20;;;6.50;99.90;;;;;;5050828;28;20246;-66
2022/11/05 01:42:49;;;;;;;20.90;12.13;;;6.50;99.90;;;;;;5050902;28;20174;-66
2022/11/05 01:45:24;;;;;;;17.43;11.43;;;6.50;99.90;;;;;;5066760;28;20202;-66
2022/11/05 01:48:11;;;;;;;11.57;10.53;;;6.50;99.90;;;;;;5071303;28;20252;-66
2022/11/05 01:50:48;;;;;;;23.37;11.63;;;6.50;99.90;;;;;;5051837;28;20171;-65
2022/11/05 01:53:29;;;;;;;18.47;12.40;;;6.40;99.90;;;;;;5053887;28;20206;-65
2022/11/05 01:56:07;;;;;;;18.03;12.63;;;6.30;99.90;;;;;;5054693;28;20613;-65
2022/11/05 01:59:04;;;;;;;17.97;12.90;;;6.30;99.90;;;;;;5054611;28;20190;-66
2022/11/05 02:01:31;;;;;;;14.10;11.87;;;6.30;99.90;;;;;;5054153;28;20183;-67
2022/11/05 02:04:03;;;;;;;14.03;10.43;;;6.20;99.90;;;;;;5055438;28;20253;-67
2022/11/05 02:06:31;;;;;;;10.53;9.63;;;6.10;99.90;;;;;;5054506;28;20206;-67
2022/11/05 02:09:06;;;;;;;12.43;10.80;;;6.00;99.90;;;;;;5059251;28;20186;-67
2022/11/05 02:11:32;;;;;;;13.13;9.83;;;6.00;99.90;;;;;;5074382;28;20173;-67
2022/11/05 02:13:58;;;;;;;10.67;9.63;;;6.00;99.90;;;;;;5069443;28;20274;-67
2022/11/05 02:16:46;;;;;;;17.07;10.63;;;5.90;99.90;;;;;;5054460;28;20531;-66
2022/11/05 02:19:24;;;;;;;16.60;10.37;;;6.00;99.90;;;;;;5059622;28;20174;-67
2022/11/05 02:21:58;;;;;;;13.63;11.90;;;6.00;99.90;;;;;;5074099;28;20172;-67
2022/11/05 02:24:42;;;;;;;19.37;11.40;;;6.10;99.90;;;;;;5067209;28;20198;-67
2022/11/05 02:27:45;;;;;;;14.93;10.80;;;6.10;99.90;;;;;;5054108;28;20179;-67
2022/11/05 02:30:40;;;;;;;20.63;11.43;;;6.20;99.90;;;;;;5060593;28;20190;-67
2022/11/05 02:33:09;;;;;;;13.07;10.77;;;6.30;99.90;;;;;;5053865;28;20207;-67
2022/11/05 02:35:41;;;;;;;15.07;10.60;;;6.40;99.90;;;;;;5068796;28;20175;-66
2022/11/05 02:38:29;;;;;;;10.50;9.67;;;6.40;99.90;;;;;;5074036;28;20569;-67
2022/11/05 02:41:27;;;;;;;12.17;10.63;;;6.40;99.90;;;;;;5053584;28;20213;-67
2022/11/05 02:44:15;;;;;;;11.50;10.17;;;6.50;99.90;;;;;;5053555;28;20245;-66
2022/11/05 02:47:11;;;;;;;16.93;9.90;;;6.60;99.90;;;;;;5058443;28;20177;-67
2022/11/05 02:49:52;;;;;;;13.57;10.87;;;6.70;99.90;;;;;;5073879;28;20174;-67
2022/11/05 02:52:41;;;;;;;13.47;11.43;;;6.80;99.90;;;;;;5064304;28;20187;-67
2022/11/05 02:55:33;;;;;;;11.03;10.03;;;6.80;99.90;;;;;;5064409;28;20224;-66
2022/11/05 02:57:58;;;;;;;13.30;11.73;;;6.90;99.90;;;;;;5058921;28;20199;-67
2022/11/05 03:00:52;;;;;;;13.23;11.77;;;6.90;99.90;;;;;;5053324;28;20704;-67
2022/11/05 03:03:21;;;;;;;14.03;11.87;;;6.90;99.90;;;;;;5073566;28;20212;-67
2022/11/05 03:06:06;;;;;;;18.60;12.47;;;7.00;99.90;;;;;;5078844;28;20177;-67
2022/11/05 03:08:50;;;;;;;14.37;11.50;;;7.00;99.90;;;;;;5057364;28;20633;-66
2022/11/05 03:11:18;;;;;;;12.13;10.87;;;7.00;99.90;;;;;;5053378;28;20246;-67
2022/11/05 03:14:04;;;;;;;12.27;11.10;;;7.00;99.90;;;;;;5071348;28;20284;-66
2022/11/05 03:16:40;;;;;;;12.07;10.93;;;7.00;99.90;;;;;;5073478;28;20169;-67
2022/11/05 03:19:32;;;;;;;11.33;10.13;;;7.00;99.90;;;;;;5053076;28;20174;-66
2022/11/05 03:22:27;;;;;;;10.90;9.83;;;6.90;99.90;;;;;;5053543;28;20228;-66
2022/11/05 03:25:01;;;;;;;10.47;9.47;;;6.80;99.90;;;;;;5053001;28;20194;-66
2022/11/05 03:27:32;;;;;;;10.17;9.27;;;6.80;99.90;;;;;;5068959;28;20174;-67
2022/11/05 03:30:01;;;;;;;11.30;9.87;;;6.70;99.90;;;;;;5072771;28;20578;-66
2022/11/05 03:32:31;;;;;;;14.10;11.33;;;6.70;99.90;;;;;;5057198;28;20644;-66
2022/11/05 03:35:11;;;;;;;11.30;9.50;;;6.70;99.90;;;;;;5052583;28;20260;-67
2022/11/05 03:37:39;;;;;;;18.60;11.10;;;6.60;99.90;;;;;;5068752;28;20192;-66
2022/11/05 03:40:08;;;;;;;16.43;11.30;;;6.60;99.90;;;;;;5072504;28;20170;-66
2022/11/05 03:42:37;;;;;;;11.90;10.57;;;6.60;99.90;;;;;;5057598;28;20388;-67
2022/11/05 03:45:09;;;;;;;13.20;11.67;;;6.60;99.90;;;;;;5052596;28;20198;-67
2022/11/05 03:47:39;;;;;;;15.57;10.07;;;6.50;99.90;;;;;;5066804;28;20200;-67
2022/11/05 03:50:31;;;;;;;13.27;10.13;;;6.50;99.90;;;;;;5071214;28;20178;-65
2022/11/05 03:53:22;;;;;;;11.87;10.73;;;6.50;99.90;;;;;;5052460;28;20668;-66
2022/11/05 03:56:17;;;;;;;14.07;11.07;;;6.50;99.90;;;;;;5057375;28;20218;-66
2022/11/05 03:58:44;;;;;;;16.83;12.03;;;6.40;99.90;;;;;;5071821;28;20185;-66
2022/11/05 04:01:10;;;;;;;14.00;11.37;;;6.40;99.90;;;;;;5063916;28;20188;-65
2022/11/05 04:03:35;;;;;;;11.33;10.13;;;6.40;99.90;;;;;;5052121;28;20271;-66
2022/11/05 04:14:16;;;;;;;12.10;10.93;;;6.30;99.90;;;;;;5051211;28;20228;-66
2022/11/05 04:24:54;;;;;;;17.23;10.60;;;6.20;99.90;;;;;;5072009;28;20200;-67
2022/11/05 04:27:19;;;;;;;12.17;10.83;;;6.20;99.90;;;;;;5057385;28;20262;-66
2022/11/05 04:32:29;;;;;;;15.43;11.50;;;6.20;99.90;;;;;;5052209;28;20185;-67
2022/11/05 04:34:54;;;;;;;18.67;11.60;;;6.30;99.90;;;;;;5051534;28;20210;-68
2022/11/05 04:37:20;;;;;;;18.47;11.27;;;6.40;99.90;;;;;;5064520;28;20192;-67
2022/11/05 04:39:46;;;;;;;16.33;12.77;;;6.40;99.90;;;;;;5071280;28;20177;-67
2022/11/05 04:42:11;;;;;;;13.67;12.27;;;6.40;99.90;;;;;;5060237;28;20179;-67
2022/11/05 04:44:37;;;;;;;21.27;13.20;;;6.50;99.90;;;;;;5058312;28;20616;-68
2022/11/05 04:47:02;;;;;;;18.40;13.60;;;6.50;99.90;;;;;;5071750;28;20686;-67
2022/11/05 04:49:28;;;;;;;14.77;12.70;;;6.60;99.90;;;;;;5065815;28;20269;-67
2022/11/05 04:51:53;;;;;;;17.13;12.43;;;6.60;99.90;;;;;;5051619;28;20190;-67
2022/11/05 04:54:19;;;;;;;19.13;13.30;;;6.60;99.90;;;;;;5051107;28;20198;-66
2022/11/05 04:56:44;;;;;;;20.97;12.67;;;6.60;99.90;;;;;;5051425;28;20625;-67
2022/11/05 04:59:10;;;;;;;15.73;11.67;;;6.50;99.90;;;;;;5052304;28;20253;-67
2022/11/05 05:01:36;;;;;;;16.00;11.50;;;6.50;99.90;;;;;;5071280;28;20170;-67
2022/11/05 05:04:01;;;;;;;12.63;11.07;;;6.40;99.90;;;;;;5071314;28;20202;-67
2022/11/05 05:06:27;;;;;;;16.40;13.80;;;6.20;99.90;;;;;;5051716;28;20240;-67
2022/11/05 05:08:52;;;;;;;14.03;12.50;;;6.20;99.90;;;;;;5049894;28;20697;-68
2022/11/05 05:11:20;;;;;;;11.57;10.40;;;6.10;99.90;;;;;;5052134;28;20193;-67
2022/11/05 05:13:47;;;;;;;18.60;12.10;;;6.10;99.90;;;;;;5050968;28;20580;-66
2022/11/05 05:16:22;;;;;;;12.83;9.60;;;6.00;99.90;;;;;;5067043;28;20186;-67
2022/11/05 05:18:48;;;;;;;16.57;10.90;;;5.90;99.90;;;;;;5069947;28;20456;-67
2022/11/05 05:24:00;;;;;;;14.33;12.53;;;5.90;99.90;;;;;;5052418;28;20209;-67
2022/11/05 05:26:26;;;;;;;15.63;12.97;;;5.90;99.90;;;;;;5072975;28;20554;-67
2022/11/05 05:28:52;;;;;;;19.03;11.60;;;5.90;99.90;;;;;;5073209;28;20174;-67
2022/11/05 05:31:19;;;;;;;12.07;10.70;;;5.80;99.90;;;;;;5053683;28;20197;-67
2022/11/05 05:33:45;;;;;;;21.23;11.70;;;5.80;99.90;;;;;;5063618;28;20583;-67
2022/11/05 05:36:10;;;;;;;16.03;12.60;;;5.80;99.90;;;;;;5075124;28;20188;-67
2022/11/05 05:38:36;;;;;;;15.03;11.33;;;5.80;99.90;;;;;;5069416;28;20751;-67
2022/11/05 05:41:02;;;;;;;24.23;13.23;;;5.90;99.90;;;;;;5067500;28;20178;-67
2022/11/05 05:43:32;;;;;;;16.33;12.77;;;5.80;99.90;;;;;;5074790;28;20209;-67
2022/11/05 05:46:09;;;;;;;17.50;12.03;;;5.90;99.90;;;;;;5074826;28;20724;-67
2022/11/05 05:48:35;;;;;;;22.53;12.80;;;5.90;99.90;;;;;;5074138;28;20613;-67
2022/11/05 05:51:06;;;;;;;18.00;13.37;;;6.00;99.90;;;;;;5073260;28;20212;-66
2022/11/05 05:53:32;;;;;;;18.33;12.20;;;6.00;99.90;;;;;;5068480;28;20218;-67
2022/11/05 05:55:58;;;;;;;18.70;13.83;;;6.00;99.90;;;;;;5054652;28;20194;-67
2022/11/05 05:58:28;;;;;;;14.20;11.67;;;6.00;99.90;;;;;;5054833;28;20629;-68
2022/11/05 06:00:54;;;;;;;22.33;14.03;;;6.00;99.90;;;;;;5054120;28;20171;-68
2022/11/05 06:03:20;;;;;;;25.97;14.13;;;6.00;99.90;;;;;;5055669;28;20197;-67
2022/11/05 06:05:46;;;;;;;17.10;13.33;;;6.10;99.90;;;;;;5054424;28;20261;-67
2022/11/05 06:08:11;;;;;;;18.93;13.43;;;6.10;99.90;;;;;;5054712;28;20213;-67
2022/11/05 06:10:37;;;;;;;22.37;15.77;;;6.10;99.90;;;;;;5056600;28;20178;-68
2022/11/05 06:13:03;;;;;;;20.47;14.57;;;6.10;99.90;;;;;;5061567;28;20190;-68
2022/11/05 06:15:28;;;;;;;20.97;14.63;;;6.00;99.90;;;;;;5062676;28;20171;-68
2022/11/05 06:17:54;;;;;;;15.33;12.77;;;6.00;99.90;;;;;;5058585;28;20181;-68
2022/11/05 06:20:19;;;;;;;22.10;12.50;;;6.00;99.90;;;;;;5072432;28;20282;-67
2022/11/05 06:22:55;;;;;;;17.77;14.03;;;6.00;99.90;;;;;;5074522;28;20170;-67
2022/11/05 06:25:21;;;;;;;19.40;13.13;;;6.10;99.90;;;;;;5056636;28;20175;-67
2022/11/05 06:27:46;;;;;;;20.60;13.80;;;6.10;99.90;;;;;;5054159;28;20648;-67
2022/11/05 06:30:12;;;;;;;20.70;12.80;;;6.00;99.90;;;;;;5069802;28;20186;-68
2022/11/05 06:32:38;;;;;;;19.50;13.87;;;6.00;99.90;;;;;;5063505;28;20706;-67
2022/11/05 06:35:04;;;;;;;21.20;12.53;;;6.00;99.90;;;;;;5059538;28;20237;-67
2022/11/05 06:37:32;;;;;;;23.03;15.80;;;6.00;99.90;;;;;;5073296;28;20532;-67
2022/11/05 06:39:58;;;;;;;21.00;13.87;;;6.00;99.90;;;;;;5068862;28;20591;-67
2022/11/05 06:42:24;;;;;;;24.83;14.73;;;6.00;99.90;;;;;;5053975;28;20163;-67
2022/11/05 06:44:50;;;;;;;19.37;12.97;;;6.00;99.90;;;;;;5056370;28;20736;-67
2022/11/05 06:47:17;;;;;;;18.43;14.37;;;6.00;99.90;;;;;;5073912;28;20178;-67
2022/11/05 06:49:43;;;;;;;30.83;15.63;;;6.00;99.90;;;;;;5072655;28;20189;-68
2022/11/05 06:52:08;;;;;;;18.33;12.17;;;6.00;99.90;;;;;;5073917;28;20194;-67
2022/11/05 06:54:34;;;;;;;20.43;13.03;;;6.10;99.90;;;;;;5073335;28;20259;-68
2022/11/05 06:56:59;;;;;;;20.50;12.57;;;6.10;99.90;;;;;;5052531;28;20178;-67
2022/11/05 06:59:25;;;;;;;23.23;13.93;;;6.20;99.90;;;;;;5054198;28;20181;-67
2022/11/05 07:01:51;;;;;;;25.07;14.13;;;6.20;99.90;;;;;;5054084;28;20248;-67
2022/11/05 07:04:16;;;;;;;19.70;13.47;;;6.30;99.90;;;;;;5053576;28;20270;-68
2022/11/05 07:06:42;;;;;;;24.97;13.60;;;6.30;99.90;;;;;;5054309;28;20212;-67
2022/11/05 07:09:07;;;;;;;30.20;17.43;;;6.40;99.90;;;;;;5059105;28;20629;-68
2022/11/05 07:11:33;;;;;;;30.80;16.70;;;6.40;99.90;;;;;;5072555;28;20242;-67
2022/11/05 07:14:00;;;;;;;25.80;16.50;;;6.40;99.90;;;;;;5072895;28;20212;-67
2022/11/05 07:16:25;;;;;;;29.20;15.13;;;6.50;99.90;;;;;;5072929;28;20204;-67
2022/11/05 07:18:51;;;;;;;18.03;13.90;;;6.60;99.90;;;;;;5072815;28;20170;-67
2022/11/05 07:21:18;;;;;;;19.73;13.40;;;6.70;99.90;;;;;;5057917;28;20241;-67
2022/11/05 07:23:44;;;;;;;21.13;12.13;;;6.70;99.90;;;;;;5057618;28;20201;-68
2022/11/05 07:26:09;;;;;;;27.87;15.33;;;6.70;99.90;;;;;;5072938;28;20201;-67
2022/11/05 07:28:35;;;;;;;25.87;14.20;;;6.80;99.90;;;;;;5062368;28;20227;-67
2022/11/05 07:31:01;;;;;;;29.10;13.87;;;6.90;99.90;;;;;;5052492;28;20206;-67
2022/11/05 07:33:26;;;;;;;20.00;14.07;;;7.00;99.90;;;;;;5061057;28;20213;-67
2022/11/05 07:35:55;;;;;;;20.13;14.10;;;7.00;99.90;;;;;;5072596;28;20249;-67
2022/11/05 07:38:21;;;;;;;26.90;13.90;;;7.10;99.90;;;;;;5065351;28;20209;-67
2022/11/05 07:40:46;;;;;;;28.80;16.13;;;7.30;99.90;;;;;;5052350;28;20392;-67
2022/11/05 07:43:12;;;;;;;27.50;16.47;;;7.50;99.90;;;;;;5067481;28;20655;-67
2022/11/05 07:45:38;;;;;;;31.87;16.03;;;7.90;99.90;;;;;;5072471;28;20170;-68
2022/11/05 07:48:04;;;;;;;30.03;16.03;;;8.30;99.90;;;;;;5058911;28;20183;-67
2022/11/05 07:50:32;;;;;;;26.20;14.40;;;8.70;99.90;;;;;;5052387;28;20182;-67
2022/11/05 07:53:06;;;;;;;19.77;12.90;;;9.00;99.90;;;;;;5064032;28;20220;-67
2022/11/05 07:55:32;;;;;;;16.50;12.00;;;9.30;99.90;;;;;;5072427;28;20689;-67
2022/11/05 07:57:58;;;;;;;23.77;14.07;;;9.60;99.90;;;;;;5060522;28;20615;-67
2022/11/05 08:00:25;;;;;;;19.40;13.37;;;9.90;99.90;;;;;;5053415;28;20179;-67
2022/11/05 08:03:09;;;;;;;15.70;11.43;;;10.20;99.90;;;;;;5069919;28;20186;-65
2022/11/05 08:05:37;;;;;;;17.20;11.37;;;10.50;99.90;;;;;;5072230;28;20220;-66
2022/11/05 08:08:04;;;;;;;19.33;10.63;;;10.70;99.90;;;;;;5052773;28;20656;-66
2022/11/05 08:10:30;;;;;;;17.10;11.40;;;10.90;99.90;;;;;;5052121;28;20175;-66
2022/11/05 08:12:55;;;;;;;13.50;9.70;;;11.00;99.90;;;;;;5071205;28;20178;-66
2022/11/05 08:15:22;;;;;;;11.83;9.83;;;11.10;99.90;;;;;;5071949;28;20547;-66
2022/11/05 08:17:48;;;;;;;12.93;10.70;;;11.20;99.90;;;;;;5055395;28;20178;-66
2022/11/05 08:20:14;;;;;;;19.50;10.57;;;11.50;99.90;;;;;;5051938;28;20174;-66
2022/11/05 08:22:44;;;;;;;15.90;11.67;;;11.50;99.90;;;;;;5066140;28;20517;-66
2022/11/05 08:25:11;;;;;;;12.60;9.87;;;11.70;99.90;;;;;;5070452;28;20202;-66
2022/11/05 08:27:37;;;;;;;13.73;9.57;;;12.00;99.90;;;;;;5051740;28;20170;-65
2022/11/05 08:30:04;;;;;;;11.47;9.77;;;12.30;99.90;;;;;;5051330;28;20297;-66
2022/11/05 08:32:30;;;;;;;12.03;8.60;;;12.50;99.90;;;;;;5051986;28;20174;-65
2022/11/05 08:34:55;;;;;;;10.40;9.00;;;12.30;99.90;;;;;;5051444;28;20199;-66
2022/11/05 08:37:21;;;;;;;12.70;8.67;;;12.50;99.90;;;;;;5068083;28;20659;-66
2022/11/05 08:39:47;;;;;;;9.03;8.10;;;12.60;99.90;;;;;;5053152;28;20189;-66
2022/11/05 08:42:13;;;;;;;9.30;7.63;;;12.50;99.90;;;;;;5057069;28;20178;-66
2022/11/05 08:44:38;;;;;;;8.63;6.97;;;12.70;99.90;;;;;;5071463;28;20190;-65
2022/11/05 08:47:04;;;;;;;9.10;7.10;;;12.80;99.90;;;;;;5071359;28;20538;-66
2022/11/05 08:49:29;;;;;;;9.37;6.37;;;13.10;99.90;;;;;;5071271;28;20589;-65
2022/11/05 08:51:55;;;;;;;11.73;6.43;;;13.50;99.90;;;;;;5071334;28;20264;-66
2022/11/05 08:54:21;;;;;;;7.47;6.73;;;13.60;99.90;;;;;;5071354;28;20209;-66
2022/11/05 08:56:46;;;;;;;7.17;6.47;;;13.80;99.90;;;;;;5070653;28;20192;-65
2022/11/05 08:59:12;;;;;;;5.73;5.20;;;14.20;99.90;;;;;;5071163;28;20170;-66
2022/11/05 09:01:37;;;;;;;7.30;5.73;;;14.10;99.90;;;;;;5071537;28;20239;-66
2022/11/05 09:04:03;;;;;;;6.97;5.87;;;14.30;99.90;;;;;;5071122;28;20181;-66
2022/11/05 09:06:29;;;;;;;8.73;6.90;;;14.60;99.90;;;;;;5071415;28;20166;-66
2022/11/05 09:08:55;;;;;;;7.30;6.27;;;14.60;99.90;;;;;;5071100;28;20221;-66
2022/11/05 09:11:20;;;;;;;6.10;5.50;;;14.50;99.90;;;;;;5066376;28;20256;-66
2022/11/05 09:13:46;;;;;;;6.80;5.50;;;14.70;99.90;;;;;;5064941;28;20218;-66
2022/11/05 09:16:20;;;;;;;6.40;5.80;;;14.80;99.90;;;;;;5071182;28;20166;-65
2022/11/05 09:18:47;;;;;;;7.70;6.07;;;14.90;99.90;;;;;;5054132;28;20544;-65
2022/11/05 09:21:12;;;;;;;6.57;5.70;;;15.00;99.90;;;;;;5050961;28;20625;-65
2022/11/05 09:23:38;;;;;;;7.73;5.87;;;14.80;99.90;;;;;;5050760;28;20210;-66
2022/11/05 09:26:04;;;;;;;6.23;5.40;;;15.00;99.90;;;;;;5051048;28;20173;-65
2022/11/05 09:28:31;;;;;;;9.77;5.30;;;15.00;99.90;;;;;;5058563;28;20196;-66
2022/11/05 09:30:57;;;;;;;5.43;4.90;;;15.20;99.90;;;;;;5073655;28;20604;-65
2022/11/05 09:33:24;;;;;;;7.97;5.10;;;15.10;99.90;;;;;;5071299;28;20237;-65
2022/11/05 09:35:51;;;;;;;7.90;5.40;;;15.30;99.90;;;;;;5076313;28;20173;-65
2022/11/05 09:38:17;;;;;;;6.73;5.30;;;15.50;99.90;;;;;;5069805;28;20166;-65
2022/11/05 09:41:23;;;;;;;8.50;5.37;;;15.40;99.90;;;;;;5059628;28;20174;-65
2022/11/05 09:44:00;;;;;;;6.73;5.23;;;15.40;99.90;;;;;;5070254;28;20214;-65
2022/11/05 09:46:32;;;;;;;6.43;5.60;;;15.30;99.90;;;;;;5057236;28;20258;-65
2022/11/05 09:49:03;;;;;;;7.23;4.77;;;15.20;99.90;;;;;;5055969;28;20266;-66
2022/11/05 09:51:30;;;;;;;5.37;4.87;;;15.30;99.90;;;;;;5071184;28;20265;-66
2022/11/05 09:53:58;;;;;;;5.43;5.03;;;15.20;99.90;;;;;;5065873;28;20206;-66
2022/11/05 09:56:27;;;;;;;7.27;4.90;;;15.40;99.90;;;;;;5050967;28;20233;-66
2022/11/05 09:58:58;;;;;;;6.10;5.50;;;15.30;99.90;;;;;;5054045;28;20162;-66
2022/11/05 10:01:32;;;;;;;5.13;4.73;;;15.00;99.90;;;;;;5070474;28;20174;-66
2022/11/05 10:04:01;;;;;;;7.53;5.30;;;14.80;99.90;;;;;;5066762;28;20191;-65
2022/11/05 10:06:27;;;;;;;5.03;4.63;;;14.90;99.90;;;;;;5050739;28;20721;-66
2022/11/05 10:09:18;;;;;;;6.27;5.07;;;14.90;99.90;;;;;;5052833;28;21031;-67
2022/11/05 10:11:53;;;;;;;5.47;5.03;;;14.80;99.90;;;;;;5070507;28;20177;-65
2022/11/05 10:14:26;;;;;;;6.63;4.87;;;14.80;99.90;;;;;;5068121;28;20293;-66
2022/11/05 10:16:59;;;;;;;5.63;5.23;;;14.70;99.90;;;;;;5057337;28;20170;-65
2022/11/05 10:19:34;;;;;;;5.20;4.40;;;14.50;99.90;;;;;;5073415;28;20181;-66
2022/11/05 10:22:10;;;;;;;6.37;5.43;;;14.50;99.90;;;;;;5073962;28;20212;-65
2022/11/05 10:24:39;;;;;;;5.23;4.83;;;14.40;99.90;;;;;;5067041;28;20199;-66
2022/11/05 10:27:05;;;;;;;6.13;4.47;;;14.50;99.90;;;;;;5053787;28;20262;-66
2022/11/05 10:29:33;;;;;;;5.17;4.67;;;14.70;99.90;;;;;;5066750;28;20273;-66
2022/11/05 10:32:02;;;;;;;6.83;5.53;;;14.90;99.90;;;;;;5073685;28;20171;-66
2022/11/05 10:34:34;;;;;;;5.73;5.30;;;14.90;99.90;;;;;;5061354;28;20210;-66
2022/11/05 10:36:59;;;;;;;5.47;4.57;;;15.00;99.90;;;;;;5053546;28;20246;-66
2022/11/05 10:39:28;;;;;;;5.70;5.20;;;14.80;99.90;;;;;;5064703;28;20266;-65
2022/11/05 10:41:59;;;;;;;5.90;5.20;;;14.80;99.90;;;;;;5073881;28;20223;-66
2022/11/05 10:44:25;;;;;;;6.63;5.00;;;14.90;99.90;;;;;;5062719;28;20202;-66
2022/11/05 10:47:20;;;;;;;5.07;4.67;;;15.10;99.90;;;;;;5053410;28;20560;-66
2022/11/05 10:49:51;;;;;;;5.10;4.60;;;15.20;99.90;;;;;;5068954;28;20678;-66
2022/11/05 10:52:24;;;;;;;4.67;4.37;;;15.20;99.90;;;;;;5073737;28;20643;-66
2022/11/05 10:54:52;;;;;;;4.40;4.10;;;15.10;99.90;;;;;;5060016;28;20219;-66
2022/11/05 10:57:34;;;;;;;4.73;4.20;;;15.30;99.90;;;;;;5053538;28;20183;-66
2022/11/05 11:00:17;;;;;;;6.17;4.27;;;15.60;99.90;;;;;;5066510;28;20180;-65
2022/11/05 11:02:49;;;;;;;4.90;4.40;;;15.90;99.90;;;;;;5072122;28;20198;-65
2022/11/05 11:05:22;;;;;;;6.00;4.10;;;16.10;99.90;;;;;;5057606;28;20293;-66
2022/11/05 11:08:01;;;;;;;4.37;3.90;;;16.20;99.90;;;;;;5053411;28;20564;-66
2022/11/05 11:10:29;;;;;;;6.20;4.00;;;16.50;99.90;;;;;;5069319;28;20190;-66
2022/11/05 11:12:56;;;;;;;12.07;3.97;;;16.90;99.90;;;;;;5073168;28;20542;-65
2022/11/05 11:15:28;;;;;;;4.70;3.80;;;17.30;99.90;;;;;;5057605;28;20199;-66
2022/11/05 11:17:55;;;;;;;6.53;4.13;;;17.30;99.90;;;;;;5066480;28;20182;-66
2022/11/05 11:20:22;;;;;;;4.30;4.00;;;17.10;99.90;;;;;;5070595;28;20171;-66
2022/11/05 11:23:12;;;;;;;4.07;3.77;;;17.00;99.90;;;;;;5072652;28;20177;-67
2022/11/05 11:25:51;;;;;;;3.97;3.60;;;16.90;99.90;;;;;;5073014;28;20569;-67
2022/11/05 11:28:43;;;;;;;4.73;4.03;;;17.00;99.90;;;;;;5057381;28;20213;-66
2022/11/05 11:31:19;;;;;;;4.30;4.00;;;16.90;99.90;;;;;;5052807;28;20179;-67
2022/11/05 11:33:49;;;;;;;4.37;3.97;;;16.60;99.90;;;;;;5071275;28;20228;-67
2022/11/05 11:36:18;;;;;;;4.13;3.80;;;16.60;99.90;;;;;;5072803;28;20177;-66
2022/11/05 11:38:44;;;;;;;5.97;4.33;;;16.90;99.90;;;;;;5054467;28;20596;-67
2022/11/05 11:41:10;;;;;;;3.73;3.43;;;17.00;99.90;;;;;;5052179;28;20201;-66
2022/11/05 11:43:38;;;;;;;3.97;3.67;;;16.90;99.90;;;;;;5068790;28;20233;-66
2022/11/05 11:46:20;;;;;;;4.17;3.87;;;17.00;99.90;;;;;;5071074;28;20232;-67
2022/11/05 11:48:48;;;;;;;4.10;3.83;;;16.60;99.90;;;;;;5054899;28;20221;-66
2022/11/05 11:51:39;;;;;;;4.77;4.37;;;16.40;99.90;;;;;;5055102;28;20268;-67
2022/11/05 11:54:16;;;;;;;5.37;4.97;;;16.20;99.90;;;;;;5071438;28;20210;-67
2022/11/05 11:56:47;;;;;;;8.80;5.37;;;15.80;99.90;;;;;;5072582;28;20690;-67
2022/11/05 11:59:22;;;;;;;7.70;4.70;;;15.50;99.90;;;;;;5052553;28;20171;-66
2022/11/05 12:02:11;;;;;;;5.70;5.20;;;15.20;99.90;;;;;;5059324;28;20178;-66
2022/11/05 12:04:52;;;;;;;8.40;5.03;;;14.90;99.90;;;;;;5070747;28;20767;-67
2022/11/05 12:07:48;;;;;;;4.87;4.37;;;14.80;99.90;;;;;;5061512;28;20183;-66
2022/11/05 12:10:38;;;;;;;5.00;4.50;;;14.70;99.90;;;;;;5051975;28;20171;-66
2022/11/05 12:13:22;;;;;;;5.20;4.60;;;14.60;99.90;;;;;;5068269;28;20182;-66
2022/11/05 12:15:50;;;;;;;6.33;4.13;;;14.50;99.90;;;;;;5072171;28;20198;-66
2022/11/05 12:18:32;;;;;;;4.53;4.30;;;14.40;99.90;;;;;;5054225;28;20175;-66
2022/11/05 12:21:21;;;;;;;5.83;3.90;;;14.30;99.90;;;;;;5051577;28;20250;-66
2022/11/05 12:24:06;;;;;;;4.70;4.40;;;14.40;99.90;;;;;;5063500;28;20213;-67
2022/11/05 12:26:39;;;;;;;4.57;4.17;;;14.20;99.90;;;;;;5070108;28;20193;-66
2022/11/05 12:29:50;;;;;;;4.60;4.30;;;13.90;99.90;;;;;;5070372;28;20177;-66
2022/11/05 12:32:42;;;;;;;5.07;4.70;;;13.80;99.90;;;;;;5054425;28;20550;-66
2022/11/05 12:35:33;;;;;;;4.80;4.50;;;13.80;99.90;;;;;;5053963;28;20206;-66
2022/11/05 12:38:01;;;;;;;5.33;4.50;;;13.80;99.90;;;;;;5063342;28;20631;-66
2022/11/05 12:40:49;;;;;;;6.47;4.40;;;13.70;99.90;;;;;;5071074;28;20178;-66
2022/11/05 12:43:30;;;;;;;6.53;5.27;;;13.70;99.90;;;;;;5064863;28;20181;-66
2022/11/05 12:46:11;;;;;;;4.93;4.50;;;13.80;99.90;;;;;;5067696;28;20618;-66
2022/11/05 12:49:00;;;;;;;6.73;4.50;;;13.80;99.90;;;;;;5059245;28;20178;-66
2022/11/05 12:52:09;;;;;;;5.73;4.60;;;14.00;99.90;;;;;;5062873;28;20235;-66
2022/11/05 12:54:54;;;;;;;4.70;4.40;;;14.10;99.90;;;;;;5067228;28;20218;-66
2022/11/05 12:57:22;;;;;;;4.20;3.90;;;14.00;99.90;;;;;;5067306;28;20819;-66
2022/11/05 13:00:22;;;;;;;6.37;4.97;;;14.00;99.90;;;;;;5068702;28;20244;-66
2022/11/05 13:03:14;;;;;;;4.70;4.40;;;14.00;99.90;;;;;;5065479;28;20193;-66
2022/11/05 13:06:17;;;;;;;5.67;5.17;;;14.00;99.90;;;;;;5055408;28;20195;-67
2022/11/05 13:08:48;;;;;;;4.97;4.53;;;14.00;99.90;;;;;;5086461;28;20660;-65
2022/11/05 13:11:19;;;;;;;4.80;4.40;;;14.00;99.90;;;;;;5076441;28;20189;-66
2022/11/05 13:14:09;;;;;;;5.40;4.90;;;14.10;99.90;;;;;;5068829;28;20699;-66
2022/11/05 13:16:39;;;;;;;4.63;4.20;;;13.90;99.90;;;;;;5057464;28;20178;-66
2022/11/05 13:19:23;;;;;;;4.53;4.33;;;13.80;99.90;;;;;;5067734;28;20355;-65
2022/11/05 13:22:08;;;;;;;5.10;4.10;;;13.80;99.90;;;;;;5054812;28;20214;-66
2022/11/05 13:24:43;;;;;;;4.97;4.20;;;13.70;99.90;;;;;;5062048;28;20232;-66
2022/11/05 13:27:44;;;;;;;4.43;4.13;;;13.80;99.90;;;;;;5065042;28;20205;-67
2022/11/05 13:30:23;;;;;;;6.40;4.17;;;13.70;99.90;;;;;;5067657;28;20243;-67
2022/11/05 13:33:02;;;;;;;5.40;4.67;;;13.70;99.90;;;;;;5065348;28;20184;-66
2022/11/05 13:35:41;;;;;;;4.00;3.80;;;13.70;99.90;;;;;;5066275;28;20208;-66
2022/11/05 13:41:30;;;;;;;4.33;4.13;;;13.70;99.90;;;;;;5064083;28;20688;-67
2022/11/05 13:44:21;;;;;;;3.80;3.60;;;13.60;99.90;;;;;;5064665;28;20655;-67
2022/11/05 13:47:03;;;;;;;4.00;3.80;;;13.50;99.90;;;;;;5061973;28;20632;-67
2022/11/05 13:50:02;;;;;;;4.03;3.83;;;13.50;99.90;;;;;;5070002;28;20185;-67
2022/11/05 13:52:40;;;;;;;4.00;3.80;;;13.60;99.90;;;;;;5069646;28;20190;-66
2022/11/05 13:55:44;;;;;;;4.33;4.10;;;13.50;99.90;;;;;;5072082;28;20468;-67